createdAt,value
2022-11-06T00:01:36.712Z,7.10
2022-11-06T00:04:03.612Z,7.57
2022-11-06T00:06:48.434Z,7.87
2022-11-06T00:09:19.769Z,7.73
2022-11-06T00:11:48.111Z,8.37
2022-11-06T00:14:15.386Z,7.03
2022-11-06T00:16:43.036Z,8.23
2022-11-06T00:19:10.204Z,7.60
2022-11-06T00:21:37.330Z,7.53
2022-11-06T00:24:06.362Z,7.80
2022-11-06T00:26:34.520Z,8.60
2022-11-06T00:29:02.316Z,7.97
2022-11-06T00:31:35.799Z,8.40
2022-11-06T00:34:03.452Z,9.00
2022-11-06T00:36:31.044Z,8.53
2022-11-06T00:38:58.756Z,9.80
2022-11-06T00:41:26.607Z,8.90
2022-11-06T00:43:56.488Z,9.93
2022-11-06T00:46:23.451Z,9.80
2022-11-06T00:48:51.871Z,10.40
2022-11-06T00:51:21.942Z,9.33
2022-11-06T00:53:53.663Z,9.63
2022-11-06T00:56:20.892Z,11.27
2022-11-06T00:58:48.478Z,10.47
2022-11-06T01:01:17.977Z,10.37
2022-11-06T01:03:46.618Z,9.73
2022-11-06T01:06:17.894Z,10.53
2022-11-06T01:08:45.867Z,9.77
2022-11-06T01:11:15.660Z,9.57
2022-11-06T01:13:42.661Z,10.50
2022-11-06T01:16:12.151Z,9.77
2022-11-06T01:18:39.578Z,10.17
2022-11-06T01:21:08.209Z,10.47
2022-11-06T01:23:35.136Z,9.90
2022-11-06T01:26:03.738Z,9.13
2022-11-06T01:28:30.768Z,9.50
2022-11-06T01:31:01.741Z,11.93
2022-11-06T01:33:29.028Z,10.10
2022-11-06T01:35:55.714Z,10.27
2022-11-06T01:38:22.639Z,11.13
2022-11-06T01:40:49.516Z,11.87
2022-11-06T01:43:38.734Z,9.83
2022-11-06T01:46:05.439Z,10.20
2022-11-06T01:48:32.239Z,10.13
2022-11-06T01:50:59.417Z,11.73
2022-11-06T01:53:26.735Z,11.10
2022-11-06T01:55:58.028Z,11.50
2022-11-06T01:58:27.158Z,10.80
2022-11-06T02:00:54.305Z,9.30
2022-11-06T02:03:22.498Z,9.00
2022-11-06T02:05:49.334Z,12.07
2022-11-06T02:08:19.569Z,12.00
2022-11-06T02:10:47.313Z,11.50
2022-11-06T02:13:20.073Z,11.67
2022-11-06T02:15:46.892Z,15.03
2022-11-06T02:18:45.628Z,11.83
2022-11-06T02:21:17.995Z,14.47
2022-11-06T02:24:10.156Z,12.67
2022-11-06T02:27:12.612Z,16.03
2022-11-06T02:30:00.445Z,14.17
2022-11-06T02:32:54.488Z,12.33
2022-11-06T02:35:32.661Z,13.43
2022-11-06T02:38:16.043Z,16.33
2022-11-06T02:40:48.063Z,17.47
2022-11-06T02:43:17.015Z,13.17
2022-11-06T02:46:12.662Z,15.80
2022-11-06T02:48:45.749Z,18.30
2022-11-06T02:51:15.741Z,16.27
2022-11-06T02:53:45.261Z,15.73
2022-11-06T02:56:25.791Z,16.80
2022-11-06T02:58:54.765Z,21.90
2022-11-06T03:01:27.790Z,22.53
2022-11-06T03:03:59.466Z,24.80
2022-11-06T03:06:32.682Z,24.80
2022-11-06T03:09:06.730Z,28.83
2022-11-06T03:11:38.808Z,20.60
2022-11-06T03:14:05.590Z,19.63
2022-11-06T03:16:56.010Z,25.53
2022-11-06T03:19:37.463Z,23.00
2022-11-06T03:22:27.082Z,23.73
2022-11-06T03:25:03.016Z,21.23
2022-11-06T03:27:35.874Z,23.90
2022-11-06T03:30:12.565Z,22.70
2022-11-06T03:32:54.542Z,21.17
2022-11-06T03:36:06.492Z,21.03
2022-11-06T03:38:51.643Z,21.67
2022-11-06T03:41:38.655Z,21.07
2022-11-06T03:44:08.626Z,21.33
2022-11-06T03:46:39.998Z,20.33
2022-11-06T03:49:13.687Z,18.13
2022-11-06T03:52:00.292Z,18.43
2022-11-06T03:54:32.332Z,17.20
2022-11-06T03:57:11.396Z,22.63
2022-11-06T03:59:50.211Z,17.90
2022-11-06T04:02:19.218Z,16.33
2022-11-06T04:04:49.127Z,16.47
2022-11-06T04:07:21.018Z,21.20
2022-11-06T04:10:15.642Z,18.97
2022-11-06T04:13:02.862Z,16.87
2022-11-06T04:15:34.730Z,16.47
2022-11-06T04:18:01.438Z,20.27
2022-11-06T04:20:57.594Z,18.63
2022-11-06T04:24:27.759Z,17.97
2022-11-06T04:27:26.700Z,18.10
2022-11-06T04:30:09.856Z,16.63
2022-11-06T04:33:00.375Z,19.90
2022-11-06T04:35:31.187Z,17.50
2022-11-06T04:38:01.336Z,17.97
2022-11-06T04:40:34.365Z,16.33
2022-11-06T04:43:13.869Z,17.10
2022-11-06T04:45:45.891Z,15.37
2022-11-06T04:48:13.753Z,16.20
2022-11-06T04:50:44.660Z,16.47
2022-11-06T04:53:12.621Z,18.47
2022-11-06T04:55:50.053Z,16.90
2022-11-06T04:58:16.830Z,15.37
2022-11-06T05:00:47.134Z,16.53
2022-11-06T05:03:15.169Z,20.30
2022-11-06T05:05:42.637Z,18.20
2022-11-06T05:08:17.322Z,18.53
2022-11-06T05:10:44.759Z,17.87
2022-11-06T05:13:12.454Z,20.67
2022-11-06T05:15:39.216Z,22.20
2022-11-06T05:18:07.017Z,23.40
2022-11-06T05:20:33.991Z,22.60
2022-11-06T05:23:01.098Z,25.07
2022-11-06T05:25:40.377Z,24.53
2022-11-06T05:28:08.395Z,30.00
2022-11-06T05:30:36.739Z,30.13
2022-11-06T05:33:04.114Z,31.00
2022-11-06T05:35:30.887Z,30.63
2022-11-06T05:38:02.035Z,29.33
2022-11-06T05:40:29.002Z,31.20
2022-11-06T05:42:56.001Z,29.60
2022-11-06T05:45:22.713Z,33.13
2022-11-06T05:47:49.478Z,33.07
2022-11-06T05:50:16.493Z,31.10
2022-11-06T05:52:43.236Z,32.27
2022-11-06T05:55:14.727Z,31.13
2022-11-06T05:57:42.509Z,36.20
2022-11-06T06:00:10.737Z,41.70
2022-11-06T06:02:38.175Z,33.50
2022-11-06T06:05:06.361Z,27.97
2022-11-06T06:07:33.337Z,27.70
2022-11-06T06:10:00.033Z,30.00
2022-11-06T06:12:26.942Z,34.60
2022-11-06T06:14:54.304Z,26.87
2022-11-06T06:17:21.828Z,31.50
2022-11-06T06:19:48.995Z,29.27
2022-11-06T06:22:15.858Z,30.37
2022-11-06T06:24:42.704Z,28.00
2022-11-06T06:27:09.591Z,28.40
2022-11-06T06:29:36.323Z,32.70
2022-11-06T06:32:04.695Z,27.53
2022-11-06T06:34:31.481Z,24.53
2022-11-06T06:36:58.262Z,28.07
2022-11-06T06:39:24.982Z,41.77
2022-11-06T06:41:51.767Z,34.93
2022-11-06T06:44:18.493Z,54.27
2022-11-06T06:46:45.213Z,35.77
2022-11-06T06:49:12.194Z,40.30
2022-11-06T06:51:38.983Z,49.13
2022-11-06T06:54:05.884Z,34.10
2022-11-06T06:56:32.585Z,38.37
2022-11-06T06:58:59.544Z,32.53
2022-11-06T07:01:26.388Z,30.37
2022-11-06T07:03:53.278Z,37.80
2022-11-06T07:06:20.483Z,39.07
2022-11-06T07:08:47.565Z,32.73
2022-11-06T07:11:14.605Z,31.13
2022-11-06T07:13:41.397Z,41.23
2022-11-06T07:16:10.234Z,28.77
2022-11-06T07:18:37.949Z,25.57
2022-11-06T07:21:06.359Z,31.30
2022-11-06T07:23:34.896Z,30.60
2022-11-06T07:26:02.128Z,35.43
2022-11-06T07:28:28.974Z,30.27
2022-11-06T07:31:04.915Z,22.43
2022-11-06T07:33:32.046Z,20.40
2022-11-06T07:36:07.182Z,22.60
2022-11-06T07:38:35.117Z,36.43
2022-11-06T07:41:03.885Z,42.50
2022-11-06T07:43:31.194Z,41.97
2022-11-06T07:46:02.668Z,37.13
2022-11-06T07:48:30.809Z,38.40
2022-11-06T07:50:58.350Z,34.93
2022-11-06T07:53:25.210Z,35.03
2022-11-06T07:55:53.869Z,33.47
2022-11-06T07:58:21.344Z,38.17
2022-11-06T08:00:50.152Z,31.47
2022-11-06T08:03:18.504Z,24.50
2022-11-06T08:05:45.454Z,34.67
2022-11-06T08:08:12.908Z,33.83
2022-11-06T08:10:40.682Z,26.63
2022-11-06T08:13:07.846Z,22.60
2022-11-06T08:15:34.535Z,16.03
2022-11-06T08:18:01.272Z,16.00
2022-11-06T08:20:28.041Z,10.97
2022-11-06T08:22:59.605Z,11.87
2022-11-06T08:25:26.709Z,11.23
2022-11-06T08:27:57.695Z,12.17
2022-11-06T08:30:24.865Z,10.50
2022-11-06T08:32:51.909Z,9.20
2022-11-06T08:35:19.049Z,9.43
2022-11-06T08:37:46.182Z,8.27
2022-11-06T08:40:13.127Z,8.40
2022-11-06T08:42:40.016Z,8.70
2022-11-06T08:45:07.302Z,8.97
2022-11-06T08:47:34.073Z,7.90
2022-11-06T08:50:00.808Z,8.60
2022-11-06T08:52:32.810Z,8.43
2022-11-06T08:55:00.728Z,7.53
2022-11-06T08:57:28.206Z,6.27
2022-11-06T08:59:54.889Z,5.77
2022-11-06T09:02:21.696Z,5.13
2022-11-06T09:04:48.512Z,5.10
2022-11-06T09:07:16.298Z,3.47
2022-11-06T09:09:43.018Z,3.50
2022-11-06T09:12:10.094Z,3.33
2022-11-06T09:14:36.874Z,3.17
2022-11-06T09:17:03.633Z,3.10
2022-11-06T09:19:30.320Z,3.17
2022-11-06T09:21:57.094Z,3.40
2022-11-06T09:24:43.246Z,3.40
2022-11-06T09:27:10.562Z,3.03
2022-11-06T09:29:40.773Z,2.40
2022-11-06T09:32:07.690Z,2.73
2022-11-06T09:34:34.460Z,3.40
2022-11-06T09:37:03.279Z,2.50
2022-11-06T09:39:29.961Z,3.10
2022-11-06T09:42:30.270Z,3.60
2022-11-06T09:45:14.433Z,3.40
2022-11-06T09:47:47.884Z,2.93
2022-11-06T09:50:19.796Z,3.00
2022-11-06T09:52:54.433Z,3.10
2022-11-06T09:55:24.225Z,3.03
2022-11-06T09:58:11.829Z,2.90
2022-11-06T10:00:40.110Z,2.83
2022-11-06T10:03:25.946Z,3.53
2022-11-06T10:05:53.668Z,2.43
2022-11-06T10:08:27.202Z,2.93
2022-11-06T10:11:16.498Z,3.10
2022-11-06T10:13:54.524Z,2.60
2022-11-06T10:16:34.506Z,2.80
2022-11-06T10:19:12.064Z,2.70
2022-11-06T10:21:55.208Z,2.33
2022-11-06T10:24:26.141Z,2.27
2022-11-06T10:26:56.920Z,1.97
2022-11-06T10:29:52.391Z,1.90
2022-11-06T10:32:56.893Z,2.00
2022-11-06T10:35:55.229Z,2.00
2022-11-06T10:38:33.893Z,1.83
2022-11-06T10:41:02.001Z,2.17
2022-11-06T10:43:47.019Z,2.13
2022-11-06T10:46:41.308Z,1.83
2022-11-06T10:49:30.356Z,2.20
2022-11-06T10:52:12.544Z,2.07
2022-11-06T10:54:52.601Z,3.07
2022-11-06T10:57:38.236Z,2.00
2022-11-06T11:00:05.882Z,2.40
2022-11-06T11:02:37.031Z,2.20
2022-11-06T11:05:13.280Z,2.30
2022-11-06T11:07:40.676Z,2.50
2022-11-06T11:10:31.943Z,1.87
2022-11-06T11:13:06.909Z,2.07
2022-11-06T11:15:44.828Z,2.53
2022-11-06T11:18:34.425Z,2.30
2022-11-06T11:21:20.468Z,2.63
2022-11-06T11:24:06.188Z,2.20
2022-11-06T11:26:37.703Z,2.53
2022-11-06T11:29:17.609Z,2.30
2022-11-06T11:31:51.985Z,2.23
2022-11-06T11:34:28.841Z,3.10
2022-11-06T11:37:02.839Z,3.07
2022-11-06T11:39:34.090Z,3.30
2022-11-06T11:42:21.897Z,3.37
2022-11-06T11:45:09.300Z,3.17
2022-11-06T11:47:46.710Z,3.50
2022-11-06T11:50:27.142Z,3.23
2022-11-06T11:53:12.122Z,4.43
2022-11-06T11:55:45.386Z,3.37
2022-11-06T11:58:22.531Z,3.40
2022-11-06T12:00:59.695Z,3.20
2022-11-06T12:03:32.379Z,3.73
2022-11-06T12:06:25.298Z,3.77
2022-11-06T12:08:55.108Z,4.10
2022-11-06T12:11:28.885Z,3.57
2022-11-06T12:14:28.475Z,3.10
2022-11-06T12:17:10.359Z,4.00
2022-11-06T12:19:39.448Z,4.30
2022-11-06T12:22:16.743Z,4.13
2022-11-06T12:24:53.580Z,4.50
2022-11-06T12:27:31.432Z,4.17
2022-11-06T12:30:12.567Z,4.27
2022-11-06T12:33:04.643Z,3.93
2022-11-06T12:35:42.469Z,4.27
2022-11-06T12:38:43.653Z,3.93
2022-11-06T12:41:30.659Z,3.23
2022-11-06T12:43:58.382Z,3.17
2022-11-06T12:46:44.809Z,2.77
2022-11-06T12:49:36.093Z,2.77
2022-11-06T12:52:17.645Z,2.30
2022-11-06T12:55:09.034Z,2.90
2022-11-06T12:57:57.781Z,3.40
2022-11-06T13:00:48.023Z,4.00
2022-11-06T13:03:33.289Z,3.07
2022-11-06T13:06:17.308Z,2.77
2022-11-06T13:09:01.876Z,3.70
2022-11-06T13:11:52.754Z,3.40
2022-11-06T13:14:35.746Z,3.10
2022-11-06T13:17:21.080Z,2.60
2022-11-06T13:20:11.185Z,3.87
2022-11-06T13:23:04.726Z,3.23
2022-11-06T13:26:01.974Z,3.07
2022-11-06T13:28:37.886Z,2.63
2022-11-06T13:31:08.195Z,2.80
2022-11-06T13:33:43.788Z,3.03
2022-11-06T13:36:11.264Z,2.97
2022-11-06T13:38:47.080Z,3.30
2022-11-06T13:41:20.557Z,3.27
2022-11-06T13:44:00.585Z,3.30
2022-11-06T13:47:00.208Z,2.93
2022-11-06T13:49:33.071Z,3.10
2022-11-06T13:52:24.382Z,3.50
2022-11-06T13:55:03.423Z,3.77
2022-11-06T13:57:54.538Z,3.83
2022-11-06T14:00:54.893Z,4.37
2022-11-06T14:03:52.509Z,3.37
2022-11-06T14:06:26.784Z,3.80
2022-11-06T14:08:59.110Z,3.83
2022-11-06T14:11:29.456Z,4.00
2022-11-06T14:14:02.833Z,4.50
2022-11-06T14:16:38.709Z,3.87
2022-11-06T14:19:12.232Z,4.40
2022-11-06T14:21:49.525Z,4.80
2022-11-06T14:24:35.014Z,3.63
2022-11-06T14:27:06.707Z,3.77
2022-11-06T14:29:33.363Z,3.30
2022-11-06T14:32:10.510Z,3.27
2022-11-06T14:34:42.314Z,3.10
2022-11-06T14:37:20.629Z,3.77
2022-11-06T14:39:56.489Z,3.40
2022-11-06T14:42:46.124Z,3.70
2022-11-06T14:45:22.517Z,3.07
2022-11-06T14:47:54.369Z,2.40
2022-11-06T14:50:50.641Z,2.07
2022-11-06T14:53:25.818Z,2.00
2022-11-06T14:56:06.351Z,1.60
2022-11-06T14:58:47.049Z,2.00
2022-11-06T15:01:16.185Z,1.57
2022-11-06T15:04:01.065Z,1.60
2022-11-06T15:06:33.982Z,1.63
2022-11-06T15:09:11.222Z,1.60
2022-11-06T15:11:47.480Z,2.07
2022-11-06T15:14:17.841Z,1.37
2022-11-06T15:16:45.709Z,1.37
2022-11-06T15:19:35.317Z,1.50
2022-11-06T15:22:42.597Z,1.40
2022-11-06T15:25:28.065Z,1.10
2022-11-06T15:28:13.951Z,1.70
2022-11-06T15:30:49.804Z,1.47
2022-11-06T15:33:26.996Z,1.30
2022-11-06T15:35:56.241Z,1.40
2022-11-06T15:38:36.543Z,1.60
2022-11-06T15:41:03.556Z,1.33
2022-11-06T15:43:36.260Z,1.70
2022-11-06T15:46:15.226Z,1.60
2022-11-06T15:48:42.058Z,1.70
2022-11-06T15:51:29.292Z,1.73
2022-11-06T15:53:56.604Z,1.80
2022-11-06T15:56:33.699Z,2.03
2022-11-06T15:59:13.373Z,1.73
2022-11-06T16:01:41.183Z,1.60
2022-11-06T16:04:22.160Z,1.70
2022-11-06T16:06:51.557Z,1.50
2022-11-06T16:09:22.181Z,1.60
2022-11-06T16:11:51.463Z,1.80
2022-11-06T16:14:19.273Z,1.77
2022-11-06T16:16:49.003Z,2.23
2022-11-06T16:19:31.676Z,1.97
2022-11-06T16:22:09.211Z,2.50
2022-11-06T16:25:04.453Z,2.17
2022-11-06T16:27:38.111Z,2.27
2022-11-06T16:30:06.486Z,1.63
2022-11-06T16:32:39.657Z,1.83
2022-11-06T16:35:33.348Z,2.03
2022-11-06T16:38:39.828Z,2.10
2022-11-06T16:41:06.748Z,2.50
2022-11-06T16:43:33.717Z,2.20
2022-11-06T16:46:07.978Z,2.50
2022-11-06T16:48:37.041Z,2.80
2022-11-06T16:51:09.994Z,2.40
2022-11-06T16:54:06.270Z,2.53
2022-11-06T16:56:34.631Z,1.83
2022-11-06T16:59:08.775Z,2.40
2022-11-06T17:01:44.379Z,2.03
2022-11-06T17:04:29.999Z,2.07
2022-11-06T17:06:58.309Z,2.20
2022-11-06T17:09:33.444Z,2.00
2022-11-06T17:12:01.743Z,2.10
2022-11-06T17:14:30.589Z,1.83
2022-11-06T17:16:59.788Z,2.10
2022-11-06T17:19:28.716Z,1.60
2022-11-06T17:21:55.880Z,1.90
2022-11-06T17:24:38.518Z,2.10
2022-11-06T17:27:05.642Z,2.03
2022-11-06T17:29:35.056Z,1.87
2022-11-06T17:32:01.988Z,1.73
2022-11-06T17:34:28.690Z,1.90
2022-11-06T17:36:55.521Z,1.70
2022-11-06T17:39:22.589Z,2.00
2022-11-06T17:41:49.335Z,2.00
2022-11-06T17:44:16.957Z,1.97
2022-11-06T17:46:45.718Z,1.80
2022-11-06T17:49:17.537Z,2.40
2022-11-06T17:51:58.611Z,2.00
2022-11-06T17:54:33.929Z,3.30
2022-11-06T17:57:03.631Z,2.60
2022-11-06T17:59:31.205Z,2.80
2022-11-06T18:01:58.483Z,2.07
2022-11-06T18:04:27.648Z,2.30
2022-11-06T18:06:54.941Z,1.77
2022-11-06T18:09:24.238Z,2.00
2022-11-06T18:11:52.841Z,2.30
2022-11-06T18:14:20.783Z,2.57
2022-11-06T18:16:48.408Z,2.33
2022-11-06T18:19:17.894Z,2.50
2022-11-06T18:21:44.726Z,2.70
2022-11-06T18:24:11.631Z,2.23
2022-11-06T18:26:38.469Z,2.43
2022-11-06T18:29:06.723Z,2.17
2022-11-06T18:31:34.085Z,2.37
2022-11-06T18:34:01.220Z,2.20
2022-11-06T18:36:28.089Z,3.10
2022-11-06T18:38:55.148Z,2.50
2022-11-06T18:41:22.294Z,3.40
2022-11-06T18:43:49.292Z,2.40
2022-11-06T18:46:17.992Z,2.40
2022-11-06T18:48:45.084Z,1.90
2022-11-06T18:51:35.200Z,2.80
2022-11-06T18:54:06.168Z,2.57
2022-11-06T18:56:35.813Z,2.87
2022-11-06T18:59:03.130Z,3.90
2022-11-06T19:01:30.059Z,3.30
2022-11-06T19:03:57.687Z,4.43
2022-11-06T19:06:24.492Z,4.70
2022-11-06T19:08:51.352Z,4.80
2022-11-06T19:11:18.985Z,4.87
2022-11-06T19:13:48.672Z,4.53
2022-11-06T19:16:16.719Z,4.73
2022-11-06T19:18:43.453Z,4.00
2022-11-06T19:21:12.649Z,4.27
2022-11-06T19:23:41.695Z,3.83
2022-11-06T19:26:29.921Z,4.23
2022-11-06T19:28:58.202Z,2.77
2022-11-06T19:31:29.344Z,2.70
2022-11-06T19:33:57.637Z,3.40
2022-11-06T19:36:25.380Z,4.43
2022-11-06T19:38:52.815Z,3.67
2022-11-06T19:41:20.413Z,3.57
2022-11-06T19:43:47.384Z,2.90
2022-11-06T19:46:18.226Z,3.57
2022-11-06T19:48:47.799Z,3.20
2022-11-06T19:51:15.988Z,3.80
2022-11-06T19:53:44.418Z,3.80
2022-11-06T19:56:16.337Z,3.90
2022-11-06T19:58:43.186Z,3.37
2022-11-06T20:01:16.692Z,2.83
2022-11-06T20:03:43.488Z,2.97
2022-11-06T20:06:10.851Z,3.23
2022-11-06T20:08:38.781Z,3.90
2022-11-06T20:11:14.998Z,3.17
2022-11-06T20:13:43.108Z,3.10
2022-11-06T20:16:16.478Z,3.03
2022-11-06T20:18:44.551Z,3.00
2022-11-06T20:21:12.742Z,2.70
2022-11-06T20:23:39.865Z,3.50
2022-11-06T20:26:07.449Z,3.20
2022-11-06T20:28:34.577Z,3.27
2022-11-06T20:31:07.670Z,3.07
2022-11-06T20:37:15.505Z,3.20
2022-11-06T20:39:42.382Z,3.40
2022-11-06T20:42:09.176Z,3.43
2022-11-06T20:44:36.743Z,3.63
2022-11-06T20:47:03.447Z,4.13
2022-11-06T20:49:31.045Z,4.03
2022-11-06T20:52:13.740Z,2.90
2022-11-06T20:54:46.334Z,2.87
2022-11-06T20:57:17.220Z,3.13
2022-11-06T20:59:44.009Z,3.83
2022-11-06T21:02:12.023Z,3.50
2022-11-06T21:04:38.964Z,3.90
2022-11-06T21:07:05.746Z,3.10
2022-11-06T21:09:32.499Z,3.63
2022-11-06T21:11:59.736Z,4.23
2022-11-06T21:14:26.523Z,3.80
2022-11-06T21:16:54.111Z,3.53
2022-11-06T21:19:20.950Z,3.63
2022-11-06T21:21:47.857Z,3.43
2022-11-06T21:24:14.776Z,3.63
2022-11-06T21:26:41.662Z,3.23
2022-11-06T21:29:10.792Z,3.67
2022-11-06T21:31:47.509Z,4.17
2022-11-06T21:34:16.779Z,3.30
2022-11-06T21:36:44.095Z,3.90
2022-11-06T21:39:14.626Z,3.30
2022-11-06T21:41:41.761Z,3.23
2022-11-06T21:44:12.440Z,2.63
2022-11-06T21:46:45.248Z,2.80
2022-11-06T21:49:13.690Z,4.10
2022-11-06T21:51:40.932Z,3.03
2022-11-06T21:54:28.653Z,3.20
2022-11-06T21:56:55.543Z,3.33
2022-11-06T21:59:26.838Z,3.10
2022-11-06T22:01:54.751Z,3.20
2022-11-06T22:04:21.604Z,3.87
2022-11-06T22:06:48.448Z,3.93
2022-11-06T22:09:16.595Z,3.23
2022-11-06T22:11:45.232Z,2.93
2022-11-06T22:14:15.600Z,3.17
2022-11-06T22:16:44.827Z,3.97
2022-11-06T22:19:12.395Z,3.70
2022-11-06T22:21:40.377Z,3.37
2022-11-06T22:24:08.072Z,3.60
2022-11-06T22:26:36.368Z,3.40
2022-11-06T22:29:07.544Z,3.43
2022-11-06T22:31:34.714Z,3.80
2022-11-06T22:34:01.494Z,4.60
2022-11-06T22:36:28.294Z,3.40
2022-11-06T22:38:55.447Z,4.53
2022-11-06T22:41:24.559Z,3.90
2022-11-06T22:43:52.420Z,4.30
2022-11-06T22:46:23.479Z,4.67
2022-11-06T22:48:51.875Z,3.80
2022-11-06T22:51:25.475Z,3.60
2022-11-06T22:53:52.760Z,4.23
2022-11-06T22:56:23.968Z,4.57
2022-11-06T22:59:00.452Z,4.00
2022-11-06T23:01:29.243Z,4.33
2022-11-06T23:04:03.499Z,4.63
2022-11-06T23:06:30.911Z,3.87
2022-11-06T23:08:58.399Z,3.47
2022-11-06T23:11:27.059Z,4.63
2022-11-06T23:13:54.503Z,4.77
2022-11-06T23:16:44.522Z,4.00
2022-11-06T23:19:13.917Z,3.50
2022-11-06T23:21:41.761Z,3.77
2022-11-06T23:24:09.215Z,4.30
2022-11-06T23:26:35.999Z,4.13
2022-11-06T23:29:03.508Z,4.07
2022-11-06T23:31:30.463Z,4.03
2022-11-06T23:33:57.194Z,3.70
2022-11-06T23:36:24.103Z,3.87
2022-11-06T23:38:54.049Z,3.50
2022-11-06T23:41:39.379Z,4.07
2022-11-06T23:44:26.207Z,3.67
2022-11-06T23:46:53.218Z,4.53
2022-11-06T23:49:20.050Z,4.50
2022-11-06T23:51:46.757Z,4.30
2022-11-06T23:54:13.554Z,4.07
2022-11-06T23:56:40.320Z,4.03
2022-11-06T23:59:07.065Z,4.07
